Logo AVAMET
Benvolgut visitant, si us plau, ingressa Recuperar contrasenya
AVAMET paisatges

Villena la Safra

Dades diàries. Acumulats / Últims 30 dies disponibles

Data Temperatura (°C) Humitat rel. (%) Pressió rel. (hPa) Vent (km/h) Precipitació
Mínima Mitjana Màxima Amplitud
tèrmica
Mínima Mitjana Màxima Mínima Mitjana Màxima Predom. Mitjana Ràfega
màxima
Total
(mm)
Índex-n
Mínima Mitjana Màxima Mínima Mitjana Màxima n
0 a 1
P0 max
mm 5'
Dades mensuals acumulades fins l'últim dia disponible
05/2020 8,4 11,7 15,4 17,6 15,6 24,0 30,4 22,0 22 67 98 1.002 1.016 1.026   0,0 0,0 45,6
Dades anuals acumulades fins l'últim dia disponible
2020 -1,2 7,3 15,4 11,9 3,5 17,6 30,4 31,6 3 74 98 929 965 1.026   3,6 107,4 415,3
Últims 30 dies disponibles
31-05-2020 9,1     17,9     26,4 17,3 30 50 81 1.011 1.013 1.014 N 0,0 0,0 0,0
30-05-2020 9,8     18,0     25,3 15,5 30 58 94 1.012 1.014 1.016 N 0,0 0,0 0,0
29-05-2020 10,1     18,5     25,4 15,3 32 56 88 1.012 1.016 1.021 N 0,0 0,0 0,0
28-05-2020 13,1     17,5     22,7 9,6 44 72 98 1.019 1.022 1.025 N 0,0 0,0 0,0
27-05-2020 10,8     17,1     23,3 12,5 37 71 97 1.022 1.024 1.025 N 0,0 0,0 0,0
26-05-2020 13,2     17,1     22,9 9,7 48 80 98 1.022 1.024 1.025 N 0,0 0,0 2,8 0,34 1,00
25-05-2020 12,1     16,1     21,1 9,0 54 83 98 1.022 1.024 1.026 N 0,0 0,0 0,8
24-05-2020 14,2     18,4     23,2 9,0 0,0
23-05-2020 12,2     21,0     29,9 17,7 29 54 84 1.022 1.024 1.025 N 0,0 0,0 0,0
22-05-2020 15,4     22,3     30,4 15,0 32 51 79 1.020 1.022 1.024 N 0,0 0,0 0,0
21-05-2020 12,9     20,7     29,8 16,9 31 58 94 1.017 1.019 1.021 N 0,0 0,0 0,0
20-05-2020 12,4     21,4     30,0 17,6 24 56 91 1.014 1.015 1.017 N 0,0 0,0 0,0
19-05-2020 12,6     19,8     27,7 15,1 29 60 95 1.015 1.017 1.020 N 0,0 0,0 0,0
18-05-2020 10,3     17,8     25,8 15,5 31 66 98 1.017 1.020 1.021 N 0,0 0,0 0,0
17-05-2020 11,1     14,2     19,0 7,9 59 85 98 1.018 1.019 1.021 N 0,0 0,0 1,0 0,42 0,40
16-05-2020 9,7     12,9     16,6 6,9 70 92 98 1.013 1.015 1.018 N 0,0 0,0 1,4 0,20
15-05-2020 8,9     11,9     15,6 6,7 62 86 98 1.009 1.011 1.014 N 0,0 0,0 4,9 0,45 0,50
14-05-2020 8,5     12,0     16,4 7,9 55 81 98 1.002 1.005 1.009 N 0,0 0,0 22,0 0,38 1,90
13-05-2020 8,4     16,2     19,9 11,5 46 60 89 1.003 1.005 1.006 N 0,0 0,0 4,3
12-05-2020 11,0     14,4     20,3 9,3 51 79 97 1.005 1.008 1.011 N 0,0 0,0 1,0
11-05-2020 11,7     16,0     21,5 9,8 39 59 81 1.007 1.008 1.011 N 0,0 0,0 0,0
10-05-2020 11,0     15,3     18,5 7,5 43 64 96 1.005 1.006 1.008 N 0,0 0,0 7,4 0,36 1,50
09-05-2020 12,3     17,9     24,0 11,7 48 79 98 1.007 1.010 1.014 N 0,0 0,0 0,0
08-05-2020 12,3     16,3     21,2 8,9 61 82 98 1.013 1.015 1.017 N 0,0 0,0 0,0
07-05-2020 12,6     17,1     22,3 9,7 48 72 97 1.016 1.017 1.018 N 0,0 0,0 0,0
06-05-2020 12,6     19,4     25,8 13,2 42 68 95 1.014 1.015 1.017 N 0,0 0,0 0,0
05-05-2020 13,3     20,5     29,2 15,9 31 52 89 1.012 1.014 1.015 N 0,0 0,0 0,0
04-05-2020 10,5     18,6     28,8 18,3 22 58 94 1.013 1.015 1.017 N 0,0 0,0 0,0
03-05-2020 13,6     20,6     28,5 14,9 23 53 78 1.016 1.018 1.019 N 0,0 0,0 0,0
02-05-2020 15,1     20,9     28,2 13,1 30 54 79 1.018 1.019 1.020 N 0,0 0,0 0,0
Últims 13 mesos disponibles
04/2020 3,9 8,8 12,5 12,6 12,8 17,9 21,5 17,6 49 80 97 935 966 1.017 N 0,0 81,6
03/2020 3,6 6,8 11,7 10,7 5,8 15,2 27,0 23,4 47 75 98 934 942 950 N 0,3 7,1 127,3
02/2020 1,6 6,1 10,9 11,6 9,9 18,2 22,8 21,2 39 69 97 940 951 957 NNO 7,2 27,7 6,5
01/2020 -1,2 3,0 9,7 7,2 3,5 12,9 16,9 18,1 56 79 98 939 949 956 SSO 10,5 107,4 154,3
12/2019 -0,3 5,9 14,0 9,5 8,4 13,7 20,2 20,5 49 79 98 566 986 1.023 SSO 15,0 91,2 76,5
11/2019 0,9 7,3 16,2 10,8 10,0 15,1 23,3 22,4 53 68 94 998 1.009 1.017 OSO 16,3 72,6 22,0
10/2019 6,1 11,4 16,2 16,7 12,6 22,7 29,9 23,8 44 72 96 1.005 1.015 1.020 SO 9,4 45,9 48,0
09/2019 11,5 16,1 20,2 20,4 17,3 25,9 33,6 22,1 43 78 97 1.009 1.016 1.021 NE 12,0 90,2 248,0
08/2019 14,5 17,5 21,7 24,5 25,1 32,4 38,4 23,9 25 60 85 1.010 1.015 1.018 S 11,5 63,0 14,0
07/2019 15,3 17,8 22,2 25,3 25,6 33,0 38,0 22,7 32 54 83 1.007 1.013 1.020 NE 13,3 71,6 1,4
06/2019 8,2 13,8 18,9 21,2 20,9 28,8 37,4 29,2 31 51 79 1.008 1.013 1.019 SSO 13,9 64,5 1,1
05/2019 5,3 10,3 15,9 16,6 19,3 23,6 28,7 23,4 37 61 79 1.004 1.013 1.021 SE 12,7 76,6 5,3
04/2019 4,3 7,9 11,5 12,1 9,7 17,2 24,9 20,6 32 68 97 998 1.010 1.022 SO 16,2 99,3 165,0
Tots els anys disponibles
2019 -5,4 9,9 22,2 15,5 8,0 21,9 38,4 43,8 22 63 98 566 1.012 1.027 SSO 13,0 99,3 601,8
Temperatura (°C)
Humitat relativa (%)
Pressió (hPa)
Precipitació (mm)
Nota sobre les dades: s'avisa a l'usuari de la provisionalitat i no oficialitat d'aquestes dades
Logo AVAMET blanc
Web allotjada a Sollutia
Llicència de Creative CommonsLa web d'AVAMET i els seus continguts estan subjectes a una llicència de
Reconeixement - No Comercial - Compartir igual
Últimes estacions: Xodos - la Vega (Soci), la Vall d'Alba - Centre (Ajuntament soci), Chera (Ajuntament soci) - - -